Terminal Aerodrome Forecast
Issued by NWS Billings, MT

Home | Current Version | Previous Version | Text Only | Print | Product List | Glossary On
Versions: 1 2 3 4 5 6 7 8 9 10 11 12 13 14 15 16 17 18 19 20 21 22 23 24 25 26 27 28 29
083
FTUS45 KBYZ 252334
TAFSHR
TAF
KSHR 252334Z 2600/2624 30008KT 6SM -RA OVC035
     FM260300 31006KT 4SM -RASN BR SCT008 OVC012
     FM261300 01005KT P6SM SCT150=

USA.gov is the U.S. government's official web portal to all federal, state and local government web resources and services.